sensor_id;sensor_type;location;lat;lon;timestamp;P1;durP1;ratioP1;P2;durP2;ratioP2
76336;SDS011;65157;50.082;18.178;2023-04-30T00:00:24;18.10;;;11.60;;
76336;SDS011;65157;50.082;18.178;2023-04-30T00:03:11;17.30;;;10.20;;
76336;SDS011;65157;50.082;18.178;2023-04-30T00:05:38;22.50;;;13.60;;
76336;SDS011;65157;50.082;18.178;2023-04-30T00:08:04;21.30;;;12.00;;
76336;SDS011;65157;50.082;18.178;2023-04-30T00:10:31;21.70;;;12.70;;
76336;SDS011;65157;50.082;18.178;2023-04-30T00:12:58;15.80;;;10.30;;
76336;SDS011;65157;50.082;18.178;2023-04-30T00:15:27;14.40;;;9.40;;
76336;SDS011;65157;50.082;18.178;2023-04-30T00:17:54;12.20;;;7.00;;
76336;SDS011;65157;50.082;18.178;2023-04-30T00:20:21;15.90;;;10.20;;
76336;SDS011;65157;50.082;18.178;2023-04-30T00:22:48;17.30;;;11.40;;
76336;SDS011;65157;50.082;18.178;2023-04-30T00:25:15;13.60;;;8.50;;
76336;SDS011;65157;50.082;18.178;2023-04-30T00:27:41;18.50;;;11.20;;
76336;SDS011;65157;50.082;18.178;2023-04-30T00:30:08;20.30;;;12.10;;
76336;SDS011;65157;50.082;18.178;2023-04-30T00:35:01;20.60;;;11.20;;
76336;SDS011;65157;50.082;18.178;2023-04-30T00:37:28;15.60;;;9.50;;
76336;SDS011;65157;50.082;18.178;2023-04-30T00:39:55;19.70;;;12.40;;
76336;SDS011;65157;50.082;18.178;2023-04-30T00:42:22;18.10;;;11.80;;
76336;SDS011;65157;50.082;18.178;2023-04-30T00:44:48;17.00;;;9.90;;
76336;SDS011;65157;50.082;18.178;2023-04-30T00:47:15;21.20;;;10.90;;
76336;SDS011;65157;50.082;18.178;2023-04-30T00:49:42;18.30;;;11.10;;
76336;SDS011;65157;50.082;18.178;2023-04-30T00:52:09;9.10;;;5.80;;
76336;SDS011;65157;50.082;18.178;2023-04-30T00:54:36;17.10;;;10.30;;
76336;SDS011;65157;50.082;18.178;2023-04-30T00:57:02;16.50;;;10.30;;
76336;SDS011;65157;50.082;18.178;2023-04-30T00:59:30;15.20;;;9.00;;
76336;SDS011;65157;50.082;18.178;2023-04-30T01:01:58;12.40;;;7.30;;
76336;SDS011;65157;50.082;18.178;2023-04-30T01:04:26;17.50;;;9.10;;
76336;SDS011;65157;50.082;18.178;2023-04-30T01:06:54;15.60;;;9.70;;
76336;SDS011;65157;50.082;18.178;2023-04-30T01:09:21;11.80;;;7.10;;
76336;SDS011;65157;50.082;18.178;2023-04-30T01:14:33;13.80;;;7.90;;
76336;SDS011;65157;50.082;18.178;2023-04-30T01:20:07;13.00;;;7.50;;
76336;SDS011;65157;50.082;18.178;2023-04-30T01:22:44;5.60;;;3.50;;
76336;SDS011;65157;50.082;18.178;2023-04-30T01:25:34;7.10;;;4.40;;
76336;SDS011;65157;50.082;18.178;2023-04-30T01:28:16;8.20;;;4.90;;
76336;SDS011;65157;50.082;18.178;2023-04-30T01:30:43;12.90;;;7.90;;
76336;SDS011;65157;50.082;18.178;2023-04-30T01:33:11;14.80;;;8.00;;
76336;SDS011;65157;50.082;18.178;2023-04-30T01:50:24;12.60;;;7.70;;
76336;SDS011;65157;50.082;18.178;2023-04-30T01:53:05;12.90;;;8.30;;
76336;SDS011;65157;50.082;18.178;2023-04-30T01:55:43;14.80;;;9.30;;
76336;SDS011;65157;50.082;18.178;2023-04-30T01:58:15;10.40;;;5.90;;
76336;SDS011;65157;50.082;18.178;2023-04-30T02:00:42;11.80;;;7.40;;
76336;SDS011;65157;50.082;18.178;2023-04-30T02:03:09;9.80;;;5.90;;
76336;SDS011;65157;50.082;18.178;2023-04-30T02:05:38;14.70;;;9.00;;
76336;SDS011;65157;50.082;18.178;2023-04-30T02:08:05;11.20;;;7.20;;
76336;SDS011;65157;50.082;18.178;2023-04-30T02:10:32;10.20;;;6.50;;
76336;SDS011;65157;50.082;18.178;2023-04-30T02:12:59;10.90;;;6.80;;
76336;SDS011;65157;50.082;18.178;2023-04-30T02:15:26;10.80;;;6.60;;
76336;SDS011;65157;50.082;18.178;2023-04-30T02:17:52;13.40;;;8.30;;
76336;SDS011;65157;50.082;18.178;2023-04-30T02:20:19;14.50;;;8.80;;
76336;SDS011;65157;50.082;18.178;2023-04-30T02:22:46;12.40;;;7.10;;
76336;SDS011;65157;50.082;18.178;2023-04-30T02:25:12;14.40;;;8.20;;
76336;SDS011;65157;50.082;18.178;2023-04-30T02:27:39;13.00;;;7.70;;
76336;SDS011;65157;50.082;18.178;2023-04-30T02:30:06;13.60;;;8.30;;
76336;SDS011;65157;50.082;18.178;2023-04-30T02:32:33;11.80;;;7.20;;
76336;SDS011;65157;50.082;18.178;2023-04-30T02:35:00;14.20;;;7.80;;
76336;SDS011;65157;50.082;18.178;2023-04-30T02:37:27;10.30;;;6.50;;
76336;SDS011;65157;50.082;18.178;2023-04-30T02:39:54;7.10;;;4.70;;
76336;SDS011;65157;50.082;18.178;2023-04-30T02:42:23;12.00;;;6.40;;
76336;SDS011;65157;50.082;18.178;2023-04-30T02:44:50;12.90;;;6.90;;
76336;SDS011;65157;50.082;18.178;2023-04-30T02:47:17;14.10;;;8.00;;
76336;SDS011;65157;50.082;18.178;2023-04-30T02:49:43;12.80;;;7.50;;
76336;SDS011;65157;50.082;18.178;2023-04-30T02:52:10;9.60;;;6.40;;
76336;SDS011;65157;50.082;18.178;2023-04-30T02:54:37;11.60;;;7.30;;
76336;SDS011;65157;50.082;18.178;2023-04-30T02:57:04;10.10;;;6.10;;
76336;SDS011;65157;50.082;18.178;2023-04-30T02:59:31;13.60;;;7.20;;
76336;SDS011;65157;50.082;18.178;2023-04-30T03:01:58;10.30;;;7.00;;
76336;SDS011;65157;50.082;18.178;2023-04-30T03:04:27;12.80;;;7.20;;
76336;SDS011;65157;50.082;18.178;2023-04-30T03:06:53;13.40;;;8.20;;
76336;SDS011;65157;50.082;18.178;2023-04-30T03:09:20;9.50;;;6.30;;
76336;SDS011;65157;50.082;18.178;2023-04-30T03:11:47;10.30;;;6.40;;
76336;SDS011;65157;50.082;18.178;2023-04-30T03:14:16;10.30;;;6.30;;
76336;SDS011;65157;50.082;18.178;2023-04-30T03:16:43;11.00;;;7.20;;
76336;SDS011;65157;50.082;18.178;2023-04-30T03:19:09;10.10;;;7.30;;
76336;SDS011;65157;50.082;18.178;2023-04-30T03:21:36;13.20;;;7.30;;
76336;SDS011;65157;50.082;18.178;2023-04-30T03:24:03;13.70;;;7.00;;
76336;SDS011;65157;50.082;18.178;2023-04-30T03:26:30;11.80;;;6.80;;
76336;SDS011;65157;50.082;18.178;2023-04-30T03:28:56;11.10;;;6.00;;
76336;SDS011;65157;50.082;18.178;2023-04-30T03:31:25;10.00;;;5.40;;
76336;SDS011;65157;50.082;18.178;2023-04-30T03:33:52;8.70;;;5.00;;
76336;SDS011;65157;50.082;18.178;2023-04-30T03:36:19;12.40;;;7.30;;
76336;SDS011;65157;50.082;18.178;2023-04-30T03:38:46;13.60;;;7.50;;
76336;SDS011;65157;50.082;18.178;2023-04-30T03:41:12;11.40;;;7.60;;
76336;SDS011;65157;50.082;18.178;2023-04-30T03:43:39;12.90;;;6.70;;
76336;SDS011;65157;50.082;18.178;2023-04-30T03:46:05;7.20;;;4.20;;
76336;SDS011;65157;50.082;18.178;2023-04-30T03:48:32;9.20;;;5.50;;
76336;SDS011;65157;50.082;18.178;2023-04-30T03:50:59;11.60;;;7.40;;
76336;SDS011;65157;50.082;18.178;2023-04-30T03:53:26;14.90;;;7.60;;
76336;SDS011;65157;50.082;18.178;2023-04-30T03:55:56;10.80;;;7.10;;
76336;SDS011;65157;50.082;18.178;2023-04-30T04:00:50;11.30;;;7.10;;
76336;SDS011;65157;50.082;18.178;2023-04-30T04:03:17;8.40;;;4.30;;
76336;SDS011;65157;50.082;18.178;2023-04-30T04:05:44;13.10;;;8.30;;
76336;SDS011;65157;50.082;18.178;2023-04-30T04:08:11;11.70;;;7.20;;
76336;SDS011;65157;50.082;18.178;2023-04-30T04:10:38;11.40;;;6.00;;
76336;SDS011;65157;50.082;18.178;2023-04-30T04:15:32;14.40;;;7.90;;
76336;SDS011;65157;50.082;18.178;2023-04-30T04:17:59;9.00;;;5.80;;
76336;SDS011;65157;50.082;18.178;2023-04-30T04:20:29;9.20;;;6.40;;
76336;SDS011;65157;50.082;18.178;2023-04-30T04:22:56;9.80;;;7.60;;
76336;SDS011;65157;50.082;18.178;2023-04-30T04:25:23;14.20;;;7.50;;
76336;SDS011;65157;50.082;18.178;2023-04-30T04:27:52;7.20;;;4.90;;
76336;SDS011;65157;50.082;18.178;2023-04-30T04:30:19;9.20;;;6.40;;
76336;SDS011;65157;50.082;18.178;2023-04-30T04:32:46;13.30;;;7.20;;
76336;SDS011;65157;50.082;18.178;2023-04-30T04:35:15;10.70;;;6.90;;
76336;SDS011;65157;50.082;18.178;2023-04-30T04:37:42;9.20;;;5.90;;
76336;SDS011;65157;50.082;18.178;2023-04-30T04:40:09;6.30;;;4.40;;
76336;SDS011;65157;50.082;18.178;2023-04-30T04:42:36;13.20;;;8.50;;
76336;SDS011;65157;50.082;18.178;2023-04-30T04:45:04;12.90;;;8.20;;
76336;SDS011;65157;50.082;18.178;2023-04-30T04:47:33;12.50;;;8.70;;
76336;SDS011;65157;50.082;18.178;2023-04-30T04:49:59;10.60;;;6.30;;
76336;SDS011;65157;50.082;18.178;2023-04-30T04:52:26;11.30;;;7.30;;
76336;SDS011;65157;50.082;18.178;2023-04-30T04:54:53;12.10;;;8.80;;
76336;SDS011;65157;50.082;18.178;2023-04-30T04:57:20;11.40;;;6.70;;
76336;SDS011;65157;50.082;18.178;2023-04-30T04:59:46;13.40;;;7.60;;
76336;SDS011;65157;50.082;18.178;2023-04-30T05:02:15;10.30;;;5.70;;
76336;SDS011;65157;50.082;18.178;2023-04-30T05:04:42;10.10;;;6.80;;
76336;SDS011;65157;50.082;18.178;2023-04-30T05:07:12;12.30;;;6.80;;
76336;SDS011;65157;50.082;18.178;2023-04-30T05:09:38;10.50;;;7.40;;
76336;SDS011;65157;50.082;18.178;2023-04-30T05:12:05;12.20;;;7.20;;
76336;SDS011;65157;50.082;18.178;2023-04-30T05:22:58;9.70;;;6.40;;
76336;SDS011;65157;50.082;18.178;2023-04-30T05:25:30;10.70;;;6.70;;
76336;SDS011;65157;50.082;18.178;2023-04-30T05:27:56;10.80;;;7.00;;
76336;SDS011;65157;50.082;18.178;2023-04-30T05:30:27;11.40;;;6.50;;
76336;SDS011;65157;50.082;18.178;2023-04-30T05:32:54;12.70;;;7.20;;
76336;SDS011;65157;50.082;18.178;2023-04-30T05:35:21;13.50;;;8.10;;
76336;SDS011;65157;50.082;18.178;2023-04-30T05:37:47;11.80;;;7.30;;
76336;SDS011;65157;50.082;18.178;2023-04-30T05:40:15;12.90;;;7.80;;
76336;SDS011;65157;50.082;18.178;2023-04-30T05:42:42;10.30;;;7.30;;
76336;SDS011;65157;50.082;18.178;2023-04-30T05:45:12;12.20;;;7.50;;
76336;SDS011;65157;50.082;18.178;2023-04-30T05:47:39;9.80;;;6.30;;
76336;SDS011;65157;50.082;18.178;2023-04-30T05:50:07;13.60;;;7.50;;
76336;SDS011;65157;50.082;18.178;2023-04-30T05:52:34;18.70;;;8.10;;
76336;SDS011;65157;50.082;18.178;2023-04-30T05:55:01;13.20;;;7.80;;
76336;SDS011;65157;50.082;18.178;2023-04-30T05:57:28;8.40;;;5.60;;
76336;SDS011;65157;50.082;18.178;2023-04-30T06:02:22;12.40;;;8.00;;
76336;SDS011;65157;50.082;18.178;2023-04-30T06:07:16;10.30;;;6.50;;
76336;SDS011;65157;50.082;18.178;2023-04-30T06:12:10;13.00;;;7.70;;
76336;SDS011;65157;50.082;18.178;2023-04-30T06:14:37;11.90;;;6.80;;
76336;SDS011;65157;50.082;18.178;2023-04-30T06:17:06;9.50;;;6.40;;
76336;SDS011;65157;50.082;18.178;2023-04-30T06:19:33;9.30;;;6.50;;
76336;SDS011;65157;50.082;18.178;2023-04-30T06:22:00;15.50;;;7.50;;
76336;SDS011;65157;50.082;18.178;2023-04-30T06:24:27;13.50;;;8.70;;
76336;SDS011;65157;50.082;18.178;2023-04-30T06:29:22;12.40;;;7.20;;
76336;SDS011;65157;50.082;18.178;2023-04-30T06:31:49;9.80;;;6.40;;
76336;SDS011;65157;50.082;18.178;2023-04-30T06:36:46;9.80;;;5.90;;
76336;SDS011;65157;50.082;18.178;2023-04-30T06:46:42;13.30;;;7.60;;
76336;SDS011;65157;50.082;18.178;2023-04-30T06:49:09;11.10;;;7.30;;
76336;SDS011;65157;50.082;18.178;2023-04-30T06:51:37;9.30;;;6.70;;
76336;SDS011;65157;50.082;18.178;2023-04-30T06:54:04;13.20;;;6.40;;
76336;SDS011;65157;50.082;18.178;2023-04-30T06:58:57;10.90;;;6.60;;
76336;SDS011;65157;50.082;18.178;2023-04-30T07:01:26;10.40;;;6.90;;
76336;SDS011;65157;50.082;18.178;2023-04-30T07:03:56;10.10;;;6.50;;
76336;SDS011;65157;50.082;18.178;2023-04-30T07:06:25;8.10;;;5.50;;
76336;SDS011;65157;50.082;18.178;2023-04-30T07:08:52;10.20;;;6.50;;
76336;SDS011;65157;50.082;18.178;2023-04-30T07:11:19;12.60;;;7.70;;
76336;SDS011;65157;50.082;18.178;2023-04-30T07:13:52;9.40;;;6.80;;
76336;SDS011;65157;50.082;18.178;2023-04-30T07:18:46;10.70;;;7.10;;
76336;SDS011;65157;50.082;18.178;2023-04-30T07:21:19;11.50;;;6.70;;
76336;SDS011;65157;50.082;18.178;2023-04-30T07:23:46;10.50;;;7.30;;
76336;SDS011;65157;50.082;18.178;2023-04-30T07:26:13;9.70;;;6.50;;
76336;SDS011;65157;50.082;18.178;2023-04-30T07:31:07;10.00;;;6.50;;
76336;SDS011;65157;50.082;18.178;2023-04-30T07:33:33;10.20;;;6.30;;
76336;SDS011;65157;50.082;18.178;2023-04-30T07:36:00;9.80;;;6.30;;
76336;SDS011;65157;50.082;18.178;2023-04-30T07:38:27;9.00;;;5.10;;
76336;SDS011;65157;50.082;18.178;2023-04-30T07:40:53;7.70;;;5.50;;
76336;SDS011;65157;50.082;18.178;2023-04-30T07:43:20;11.90;;;6.00;;
76336;SDS011;65157;50.082;18.178;2023-04-30T07:45:47;4.90;;;3.70;;
76336;SDS011;65157;50.082;18.178;2023-04-30T07:48:13;9.30;;;5.60;;
76336;SDS011;65157;50.082;18.178;2023-04-30T07:50:40;9.80;;;5.40;;
76336;SDS011;65157;50.082;18.178;2023-04-30T07:53:08;8.40;;;5.90;;
76336;SDS011;65157;50.082;18.178;2023-04-30T07:55:35;7.80;;;5.30;;
76336;SDS011;65157;50.082;18.178;2023-04-30T07:58:03;10.50;;;6.00;;
76336;SDS011;65157;50.082;18.178;2023-04-30T08:02:57;9.10;;;6.30;;
76336;SDS011;65157;50.082;18.178;2023-04-30T08:05:25;8.50;;;6.00;;
76336;SDS011;65157;50.082;18.178;2023-04-30T08:07:55;7.70;;;5.60;;
76336;SDS011;65157;50.082;18.178;2023-04-30T08:10:22;8.70;;;5.10;;
76336;SDS011;65157;50.082;18.178;2023-04-30T08:12:49;8.00;;;5.30;;
76336;SDS011;65157;50.082;18.178;2023-04-30T08:15:16;6.90;;;5.00;;
76336;SDS011;65157;50.082;18.178;2023-04-30T08:17:44;6.90;;;5.40;;
76336;SDS011;65157;50.082;18.178;2023-04-30T08:20:11;6.00;;;4.60;;
76336;SDS011;65157;50.082;18.178;2023-04-30T08:22:40;7.50;;;4.30;;
76336;SDS011;65157;50.082;18.178;2023-04-30T08:25:11;9.30;;;5.40;;
76336;SDS011;65157;50.082;18.178;2023-04-30T08:27:38;8.40;;;4.70;;
76336;SDS011;65157;50.082;18.178;2023-04-30T08:30:09;7.70;;;4.30;;
76336;SDS011;65157;50.082;18.178;2023-04-30T08:33:00;8.10;;;4.30;;
76336;SDS011;65157;50.082;18.178;2023-04-30T08:35:27;5.00;;;3.80;;
76336;SDS011;65157;50.082;18.178;2023-04-30T08:37:57;6.30;;;4.40;;
76336;SDS011;65157;50.082;18.178;2023-04-30T08:40:29;6.00;;;4.30;;
76336;SDS011;65157;50.082;18.178;2023-04-30T08:43:04;6.90;;;4.00;;
76336;SDS011;65157;50.082;18.178;2023-04-30T08:45:35;5.60;;;3.60;;
76336;SDS011;65157;50.082;18.178;2023-04-30T08:48:07;5.60;;;3.40;;
76336;SDS011;65157;50.082;18.178;2023-04-30T08:50:36;4.70;;;3.20;;
76336;SDS011;65157;50.082;18.178;2023-04-30T08:53:03;5.20;;;3.90;;
76336;SDS011;65157;50.082;18.178;2023-04-30T08:55:30;5.80;;;3.90;;
76336;SDS011;65157;50.082;18.178;2023-04-30T08:57:59;4.30;;;3.80;;
76336;SDS011;65157;50.082;18.178;2023-04-30T09:00:28;3.90;;;3.10;;
76336;SDS011;65157;50.082;18.178;2023-04-30T09:02:57;4.30;;;3.00;;
76336;SDS011;65157;50.082;18.178;2023-04-30T09:05:26;5.40;;;3.30;;
76336;SDS011;65157;50.082;18.178;2023-04-30T09:07:53;6.30;;;3.20;;
76336;SDS011;65157;50.082;18.178;2023-04-30T09:10:20;4.50;;;3.40;;
76336;SDS011;65157;50.082;18.178;2023-04-30T09:12:57;4.10;;;3.40;;
76336;SDS011;65157;50.082;18.178;2023-04-30T09:15:32;4.20;;;2.90;;
76336;SDS011;65157;50.082;18.178;2023-04-30T09:20:32;3.10;;;2.50;;
76336;SDS011;65157;50.082;18.178;2023-04-30T09:23:06;4.40;;;3.30;;
76336;SDS011;65157;50.082;18.178;2023-04-30T09:25:40;7.70;;;4.00;;
76336;SDS011;65157;50.082;18.178;2023-04-30T09:28:08;4.40;;;2.80;;
76336;SDS011;65157;50.082;18.178;2023-04-30T09:30:36;3.60;;;2.40;;
76336;SDS011;65157;50.082;18.178;2023-04-30T09:33:03;5.60;;;3.20;;
76336;SDS011;65157;50.082;18.178;2023-04-30T09:35:35;3.90;;;3.40;;
76336;SDS011;65157;50.082;18.178;2023-04-30T09:38:23;5.30;;;3.50;;
76336;SDS011;65157;50.082;18.178;2023-04-30T09:40:56;6.50;;;3.00;;
76336;SDS011;65157;50.082;18.178;2023-04-30T09:43:26;3.90;;;2.90;;
76336;SDS011;65157;50.082;18.178;2023-04-30T09:45:54;5.60;;;3.30;;
76336;SDS011;65157;50.082;18.178;2023-04-30T09:48:23;2.60;;;2.40;;
76336;SDS011;65157;50.082;18.178;2023-04-30T09:50:53;3.20;;;2.60;;
76336;SDS011;65157;50.082;18.178;2023-04-30T09:53:20;5.00;;;3.50;;
76336;SDS011;65157;50.082;18.178;2023-04-30T09:58:18;3.60;;;3.30;;
76336;SDS011;65157;50.082;18.178;2023-04-30T10:00:45;4.20;;;3.40;;
76336;SDS011;65157;50.082;18.178;2023-04-30T10:03:14;3.80;;;2.70;;
76336;SDS011;65157;50.082;18.178;2023-04-30T10:08:12;3.90;;;3.10;;
76336;SDS011;65157;50.082;18.178;2023-04-30T10:10:49;5.30;;;3.70;;
76336;SDS011;65157;50.082;18.178;2023-04-30T10:13:19;6.30;;;3.10;;
76336;SDS011;65157;50.082;18.178;2023-04-30T10:15:50;3.70;;;2.60;;
76336;SDS011;65157;50.082;18.178;2023-04-30T10:18:21;4.60;;;3.50;;
76336;SDS011;65157;50.082;18.178;2023-04-30T10:23:24;5.20;;;3.30;;
76336;SDS011;65157;50.082;18.178;2023-04-30T10:25:51;3.70;;;2.90;;
76336;SDS011;65157;50.082;18.178;2023-04-30T10:28:18;5.00;;;3.40;;
76336;SDS011;65157;50.082;18.178;2023-04-30T10:36:03;3.70;;;3.30;;
76336;SDS011;65157;50.082;18.178;2023-04-30T10:38:33;3.90;;;3.40;;
76336;SDS011;65157;50.082;18.178;2023-04-30T10:41:01;4.40;;;2.90;;
76336;SDS011;65157;50.082;18.178;2023-04-30T10:45:58;4.10;;;3.10;;
76336;SDS011;65157;50.082;18.178;2023-04-30T10:48:25;4.60;;;3.40;;
76336;SDS011;65157;50.082;18.178;2023-04-30T10:50:57;3.70;;;2.90;;
76336;SDS011;65157;50.082;18.178;2023-04-30T10:53:25;4.50;;;3.10;;
76336;SDS011;65157;50.082;18.178;2023-04-30T10:55:53;3.70;;;3.20;;
76336;SDS011;65157;50.082;18.178;2023-04-30T11:01:01;4.40;;;2.80;;
76336;SDS011;65157;50.082;18.178;2023-04-30T11:03:39;4.50;;;3.00;;
76336;SDS011;65157;50.082;18.178;2023-04-30T11:06:09;2.60;;;1.80;;
76336;SDS011;65157;50.082;18.178;2023-04-30T11:08:56;3.00;;;2.70;;
76336;SDS011;65157;50.082;18.178;2023-04-30T11:11:32;3.30;;;2.90;;
76336;SDS011;65157;50.082;18.178;2023-04-30T11:13:59;2.10;;;1.90;;
76336;SDS011;65157;50.082;18.178;2023-04-30T11:16:30;4.70;;;3.30;;
76336;SDS011;65157;50.082;18.178;2023-04-30T11:19:05;4.70;;;3.10;;
76336;SDS011;65157;50.082;18.178;2023-04-30T11:22:20;5.40;;;3.40;;
76336;SDS011;65157;50.082;18.178;2023-04-30T11:27:23;3.00;;;2.70;;
76336;SDS011;65157;50.082;18.178;2023-04-30T11:29:52;5.00;;;3.10;;
76336;SDS011;65157;50.082;18.178;2023-04-30T11:32:20;4.60;;;3.10;;
76336;SDS011;65157;50.082;18.178;2023-04-30T11:34:52;4.60;;;3.00;;
76336;SDS011;65157;50.082;18.178;2023-04-30T11:37:22;4.00;;;2.90;;
76336;SDS011;65157;50.082;18.178;2023-04-30T11:39:56;5.60;;;3.50;;
76336;SDS011;65157;50.082;18.178;2023-04-30T11:42:25;4.10;;;2.60;;
76336;SDS011;65157;50.082;18.178;2023-04-30T11:44:52;4.70;;;2.50;;
76336;SDS011;65157;50.082;18.178;2023-04-30T11:47:19;3.00;;;2.50;;
76336;SDS011;65157;50.082;18.178;2023-04-30T11:49:46;5.30;;;3.00;;
76336;SDS011;65157;50.082;18.178;2023-04-30T11:52:20;4.10;;;2.90;;
76336;SDS011;65157;50.082;18.178;2023-04-30T11:54:59;3.20;;;2.50;;
76336;SDS011;65157;50.082;18.178;2023-04-30T11:57:33;3.10;;;2.60;;
76336;SDS011;65157;50.082;18.178;2023-04-30T12:00:08;4.40;;;2.80;;
76336;SDS011;65157;50.082;18.178;2023-04-30T12:02:40;4.70;;;2.70;;
76336;SDS011;65157;50.082;18.178;2023-04-30T12:05:11;5.10;;;3.00;;
76336;SDS011;65157;50.082;18.178;2023-04-30T12:07:39;4.80;;;2.40;;
76336;SDS011;65157;50.082;18.178;2023-04-30T12:10:15;3.10;;;2.30;;
76336;SDS011;65157;50.082;18.178;2023-04-30T12:12:44;3.90;;;2.60;;
76336;SDS011;65157;50.082;18.178;2023-04-30T12:15:16;5.40;;;3.10;;
76336;SDS011;65157;50.082;18.178;2023-04-30T12:17:44;4.40;;;3.50;;
76336;SDS011;65157;50.082;18.178;2023-04-30T12:20:12;4.10;;;2.90;;
76336;SDS011;65157;50.082;18.178;2023-04-30T12:22:41;4.60;;;2.60;;
76336;SDS011;65157;50.082;18.178;2023-04-30T12:25:16;4.70;;;3.00;;
76336;SDS011;65157;50.082;18.178;2023-04-30T12:27:44;4.30;;;2.40;;
76336;SDS011;65157;50.082;18.178;2023-04-30T12:30:13;5.20;;;3.40;;
76336;SDS011;65157;50.082;18.178;2023-04-30T12:32:44;2.90;;;2.50;;
76336;SDS011;65157;50.082;18.178;2023-04-30T12:35:15;3.10;;;1.80;;
76336;SDS011;65157;50.082;18.178;2023-04-30T12:37:45;2.10;;;1.90;;
76336;SDS011;65157;50.082;18.178;2023-04-30T12:40:18;3.70;;;2.30;;
76336;SDS011;65157;50.082;18.178;2023-04-30T12:42:46;4.70;;;2.30;;
76336;SDS011;65157;50.082;18.178;2023-04-30T12:48:16;4.30;;;2.50;;
76336;SDS011;65157;50.082;18.178;2023-04-30T12:50:54;2.70;;;2.20;;
76336;SDS011;65157;50.082;18.178;2023-04-30T12:53:22;2.50;;;2.20;;
76336;SDS011;65157;50.082;18.178;2023-04-30T12:56:11;3.90;;;2.30;;
76336;SDS011;65157;50.082;18.178;2023-04-30T12:58:40;4.80;;;2.30;;
76336;SDS011;65157;50.082;18.178;2023-04-30T13:01:11;4.40;;;2.30;;
76336;SDS011;65157;50.082;18.178;2023-04-30T13:03:39;2.40;;;2.10;;
76336;SDS011;65157;50.082;18.178;2023-04-30T13:06:06;5.50;;;2.70;;
76336;SDS011;65157;50.082;18.178;2023-04-30T13:08:34;2.20;;;2.00;;
76336;SDS011;65157;50.082;18.178;2023-04-30T13:11:01;4.50;;;2.50;;
76336;SDS011;65157;50.082;18.178;2023-04-30T13:13:28;4.60;;;2.70;;
76336;SDS011;65157;50.082;18.178;2023-04-30T13:15:56;4.40;;;2.50;;
76336;SDS011;65157;50.082;18.178;2023-04-30T13:18:22;3.50;;;2.50;;
76336;SDS011;65157;50.082;18.178;2023-04-30T13:23:15;6.20;;;3.10;;
76336;SDS011;65157;50.082;18.178;2023-04-30T13:25:42;6.90;;;3.40;;
76336;SDS011;65157;50.082;18.178;2023-04-30T13:28:09;2.80;;;2.30;;
76336;SDS011;65157;50.082;18.178;2023-04-30T13:30:36;3.30;;;2.20;;
76336;SDS011;65157;50.082;18.178;2023-04-30T13:33:02;3.00;;;2.20;;
76336;SDS011;65157;50.082;18.178;2023-04-30T13:35:29;3.10;;;2.70;;
76336;SDS011;65157;50.082;18.178;2023-04-30T13:37:57;3.30;;;2.10;;
76336;SDS011;65157;50.082;18.178;2023-04-30T13:40:26;2.80;;;2.20;;
76336;SDS011;65157;50.082;18.178;2023-04-30T13:42:53;2.60;;;2.10;;
76336;SDS011;65157;50.082;18.178;2023-04-30T13:45:23;2.50;;;2.30;;
76336;SDS011;65157;50.082;18.178;2023-04-30T13:47:49;3.30;;;2.30;;
76336;SDS011;65157;50.082;18.178;2023-04-30T13:50:18;3.90;;;3.10;;
76336;SDS011;65157;50.082;18.178;2023-04-30T13:52:45;3.10;;;2.80;;
76336;SDS011;65157;50.082;18.178;2023-04-30T13:55:12;2.30;;;2.10;;
76336;SDS011;65157;50.082;18.178;2023-04-30T13:57:38;3.50;;;2.50;;
76336;SDS011;65157;50.082;18.178;2023-04-30T14:00:06;2.70;;;1.80;;
76336;SDS011;65157;50.082;18.178;2023-04-30T14:02:37;3.40;;;2.40;;
76336;SDS011;65157;50.082;18.178;2023-04-30T14:05:04;4.00;;;2.10;;
76336;SDS011;65157;50.082;18.178;2023-04-30T14:07:31;3.60;;;2.30;;
76336;SDS011;65157;50.082;18.178;2023-04-30T14:09:58;3.20;;;2.20;;
76336;SDS011;65157;50.082;18.178;2023-04-30T14:12:25;2.10;;;1.80;;
76336;SDS011;65157;50.082;18.178;2023-04-30T14:14:52;2.90;;;2.30;;
76336;SDS011;65157;50.082;18.178;2023-04-30T14:17:18;3.40;;;1.90;;
76336;SDS011;65157;50.082;18.178;2023-04-30T14:19:46;2.20;;;1.90;;
76336;SDS011;65157;50.082;18.178;2023-04-30T14:22:13;3.90;;;2.40;;
76336;SDS011;65157;50.082;18.178;2023-04-30T14:24:40;2.20;;;1.80;;
76336;SDS011;65157;50.082;18.178;2023-04-30T14:29:34;2.90;;;2.10;;
76336;SDS011;65157;50.082;18.178;2023-04-30T14:32:02;3.10;;;1.80;;
76336;SDS011;65157;50.082;18.178;2023-04-30T14:34:31;2.60;;;2.10;;
76336;SDS011;65157;50.082;18.178;2023-04-30T14:36:58;1.90;;;1.70;;
76336;SDS011;65157;50.082;18.178;2023-04-30T14:39:27;1.70;;;1.60;;
76336;SDS011;65157;50.082;18.178;2023-04-30T14:41:54;2.00;;;1.80;;
76336;SDS011;65157;50.082;18.178;2023-04-30T14:44:21;5.10;;;2.30;;
76336;SDS011;65157;50.082;18.178;2023-04-30T14:46:50;2.40;;;1.80;;
76336;SDS011;65157;50.082;18.178;2023-04-30T14:49:17;4.50;;;2.30;;
76336;SDS011;65157;50.082;18.178;2023-04-30T14:51:43;4.00;;;2.60;;
76336;SDS011;65157;50.082;18.178;2023-04-30T14:54:10;4.00;;;2.20;;
76336;SDS011;65157;50.082;18.178;2023-04-30T14:56:37;2.50;;;2.00;;
76336;SDS011;65157;50.082;18.178;2023-04-30T14:59:04;2.10;;;1.60;;
76336;SDS011;65157;50.082;18.178;2023-04-30T15:01:31;4.20;;;1.70;;
76336;SDS011;65157;50.082;18.178;2023-04-30T15:03:57;2.60;;;1.90;;
76336;SDS011;65157;50.082;18.178;2023-04-30T15:06:24;3.00;;;1.90;;
76336;SDS011;65157;50.082;18.178;2023-04-30T15:08:51;2.60;;;1.60;;
76336;SDS011;65157;50.082;18.178;2023-04-30T15:13:44;3.80;;;2.00;;
76336;SDS011;65157;50.082;18.178;2023-04-30T15:16:12;4.70;;;1.70;;
76336;SDS011;65157;50.082;18.178;2023-04-30T15:18:41;3.60;;;1.70;;
76336;SDS011;65157;50.082;18.178;2023-04-30T15:21:09;3.40;;;2.10;;
76336;SDS011;65157;50.082;18.178;2023-04-30T15:23:39;3.60;;;1.90;;
76336;SDS011;65157;50.082;18.178;2023-04-30T15:26:08;3.70;;;1.80;;
76336;SDS011;65157;50.082;18.178;2023-04-30T15:28:38;1.80;;;1.30;;
76336;SDS011;65157;50.082;18.178;2023-04-30T15:33:31;2.90;;;1.40;;
76336;SDS011;65157;50.082;18.178;2023-04-30T15:38:27;3.90;;;1.90;;
76336;SDS011;65157;50.082;18.178;2023-04-30T15:40:58;3.10;;;1.90;;
76336;SDS011;65157;50.082;18.178;2023-04-30T15:43:25;2.00;;;1.70;;
76336;SDS011;65157;50.082;18.178;2023-04-30T15:48:18;2.90;;;1.80;;
76336;SDS011;65157;50.082;18.178;2023-04-30T15:53:11;2.70;;;1.70;;
76336;SDS011;65157;50.082;18.178;2023-04-30T15:58:05;4.10;;;2.50;;
76336;SDS011;65157;50.082;18.178;2023-04-30T16:00:32;3.60;;;1.70;;
76336;SDS011;65157;50.082;18.178;2023-04-30T16:02:59;3.30;;;1.80;;
76336;SDS011;65157;50.082;18.178;2023-04-30T16:05:26;4.60;;;1.80;;
76336;SDS011;65157;50.082;18.178;2023-04-30T16:07:52;2.40;;;1.70;;
76336;SDS011;65157;50.082;18.178;2023-04-30T16:10:23;3.70;;;1.60;;
76336;SDS011;65157;50.082;18.178;2023-04-30T16:12:50;2.60;;;1.60;;
76336;SDS011;65157;50.082;18.178;2023-04-30T16:15:17;3.10;;;1.30;;
76336;SDS011;65157;50.082;18.178;2023-04-30T16:17:45;4.20;;;1.60;;
76336;SDS011;65157;50.082;18.178;2023-04-30T16:20:12;2.80;;;1.70;;
76336;SDS011;65157;50.082;18.178;2023-04-30T16:22:39;2.30;;;1.60;;
76336;SDS011;65157;50.082;18.178;2023-04-30T16:25:06;2.90;;;1.80;;
76336;SDS011;65157;50.082;18.178;2023-04-30T16:27:34;2.30;;;1.50;;